sensor_id;sensor_type;location;lat;lon;timestamp;P1;durP1;ratioP1;P2;durP2;ratioP2
19861;SDS011;10093;48.148;8.542;2023-11-21T00:02:17;1.80;;;0.22;;
19861;SDS011;10093;48.148;8.542;2023-11-21T00:04:43;1.67;;;0.30;;
19861;SDS011;10093;48.148;8.542;2023-11-21T00:07:08;3.47;;;0.50;;
19861;SDS011;10093;48.148;8.542;2023-11-21T00:09:34;5.60;;;0.40;;
19861;SDS011;10093;48.148;8.542;2023-11-21T00:12:01;3.40;;;0.50;;
19861;SDS011;10093;48.148;8.542;2023-11-21T00:14:27;3.75;;;0.32;;
19861;SDS011;10093;48.148;8.542;2023-11-21T00:16:53;1.85;;;0.30;;
19861;SDS011;10093;48.148;8.542;2023-11-21T00:19:19;2.50;;;0.30;;
19861;SDS011;10093;48.148;8.542;2023-11-21T00:21:44;1.67;;;0.30;;
19861;SDS011;10093;48.148;8.542;2023-11-21T00:24:11;2.22;;;0.30;;
19861;SDS011;10093;48.148;8.542;2023-11-21T00:26:39;2.05;;;0.30;;
19861;SDS011;10093;48.148;8.542;2023-11-21T00:29:05;2.40;;;0.30;;
19861;SDS011;10093;48.148;8.542;2023-11-21T00:31:33;1.92;;;0.20;;
19861;SDS011;10093;48.148;8.542;2023-11-21T00:34:02;1.23;;;0.22;;
19861;SDS011;10093;48.148;8.542;2023-11-21T00:36:31;6.82;;;0.30;;
19861;SDS011;10093;48.148;8.542;2023-11-21T00:38:57;1.60;;;0.20;;
19861;SDS011;10093;48.148;8.542;2023-11-21T00:41:24;2.97;;;0.30;;
19861;SDS011;10093;48.148;8.542;2023-11-21T00:43:52;2.25;;;0.20;;
19861;SDS011;10093;48.148;8.542;2023-11-21T00:46:18;1.23;;;0.20;;
19861;SDS011;10093;48.148;8.542;2023-11-21T00:48:44;1.63;;;0.38;;
19861;SDS011;10093;48.148;8.542;2023-11-21T00:51:09;3.35;;;0.20;;
19861;SDS011;10093;48.148;8.542;2023-11-21T00:53:35;1.08;;;0.30;;
19861;SDS011;10093;48.148;8.542;2023-11-21T00:56:00;0.60;;;0.13;;
19861;SDS011;10093;48.148;8.542;2023-11-21T00:58:27;1.35;;;0.20;;
19861;SDS011;10093;48.148;8.542;2023-11-21T01:00:53;0.10;;;0.10;;
19861;SDS011;10093;48.148;8.542;2023-11-21T01:03:19;1.23;;;0.20;;
19861;SDS011;10093;48.148;8.542;2023-11-21T01:05:45;1.95;;;0.20;;
19861;SDS011;10093;48.148;8.542;2023-11-21T01:08:11;0.75;;;0.20;;
19861;SDS011;10093;48.148;8.542;2023-11-21T01:10:37;1.65;;;0.30;;
19861;SDS011;10093;48.148;8.542;2023-11-21T01:13:03;1.55;;;0.25;;
19861;SDS011;10093;48.148;8.542;2023-11-21T01:15:32;1.30;;;0.30;;
19861;SDS011;10093;48.148;8.542;2023-11-21T01:17:58;1.33;;;0.20;;
19861;SDS011;10093;48.148;8.542;2023-11-21T01:20:24;2.67;;;0.20;;
19861;SDS011;10093;48.148;8.542;2023-11-21T01:22:49;0.45;;;0.20;;
19861;SDS011;10093;48.148;8.542;2023-11-21T01:25:15;1.58;;;0.17;;
19861;SDS011;10093;48.148;8.542;2023-11-21T01:27:41;0.80;;;0.20;;
19861;SDS011;10093;48.148;8.542;2023-11-21T01:30:08;0.30;;;0.10;;
19861;SDS011;10093;48.148;8.542;2023-11-21T01:32:35;0.10;;;0.10;;
19861;SDS011;10093;48.148;8.542;2023-11-21T01:35:01;1.48;;;0.20;;
19861;SDS011;10093;48.148;8.542;2023-11-21T01:37:27;3.13;;;0.20;;
19861;SDS011;10093;48.148;8.542;2023-11-21T01:39:53;0.90;;;0.10;;
19861;SDS011;10093;48.148;8.542;2023-11-21T01:42:20;0.22;;;0.10;;
19861;SDS011;10093;48.148;8.542;2023-11-21T01:44:46;1.27;;;0.10;;
19861;SDS011;10093;48.148;8.542;2023-11-21T01:47:11;1.30;;;0.00;;
19861;SDS011;10093;48.148;8.542;2023-11-21T01:49:38;1.73;;;0.00;;
19861;SDS011;10093;48.148;8.542;2023-11-21T01:52:04;0.77;;;0.00;;
19861;SDS011;10093;48.148;8.542;2023-11-21T01:54:31;1.52;;;0.00;;
19861;SDS011;10093;48.148;8.542;2023-11-21T01:57:00;0.47;;;0.10;;
19861;SDS011;10093;48.148;8.542;2023-11-21T01:59:28;0.13;;;0.10;;
19861;SDS011;10093;48.148;8.542;2023-11-21T02:01:59;0.20;;;0.00;;
19861;SDS011;10093;48.148;8.542;2023-11-21T02:04:25;2.17;;;0.05;;
19861;SDS011;10093;48.148;8.542;2023-11-21T02:06:50;0.35;;;0.10;;
19861;SDS011;10093;48.148;8.542;2023-11-21T02:09:16;0.25;;;0.03;;
19861;SDS011;10093;48.148;8.542;2023-11-21T02:11:43;1.13;;;0.10;;
19861;SDS011;10093;48.148;8.542;2023-11-21T02:14:09;0.82;;;0.00;;
19861;SDS011;10093;48.148;8.542;2023-11-21T02:16:35;0.10;;;0.10;;
19861;SDS011;10093;48.148;8.542;2023-11-21T02:19:02;0.70;;;0.00;;
19861;SDS011;10093;48.148;8.542;2023-11-21T02:21:34;1.45;;;0.08;;
19861;SDS011;10093;48.148;8.542;2023-11-21T02:24:01;0.35;;;0.03;;
19861;SDS011;10093;48.148;8.542;2023-11-21T02:26:26;0.20;;;0.10;;
19861;SDS011;10093;48.148;8.542;2023-11-21T02:28:52;0.00;;;0.00;;
19861;SDS011;10093;48.148;8.542;2023-11-21T02:31:18;0.10;;;0.10;;
19861;SDS011;10093;48.148;8.542;2023-11-21T02:33:44;0.50;;;0.08;;
19861;SDS011;10093;48.148;8.542;2023-11-21T02:36:09;0.32;;;0.10;;
19861;SDS011;10093;48.148;8.542;2023-11-21T02:38:35;0.08;;;0.05;;
19861;SDS011;10093;48.148;8.542;2023-11-21T02:41:00;0.08;;;0.05;;
19861;SDS011;10093;48.148;8.542;2023-11-21T02:43:26;0.10;;;0.10;;
19861;SDS011;10093;48.148;8.542;2023-11-21T02:45:52;0.70;;;0.10;;
19861;SDS011;10093;48.148;8.542;2023-11-21T02:48:17;0.68;;;0.10;;
19861;SDS011;10093;48.148;8.542;2023-11-21T02:50:43;0.20;;;0.10;;
19861;SDS011;10093;48.148;8.542;2023-11-21T02:53:09;0.10;;;0.10;;
19861;SDS011;10093;48.148;8.542;2023-11-21T02:55:35;0.10;;;0.10;;
19861;SDS011;10093;48.148;8.542;2023-11-21T02:58:01;0.70;;;0.10;;
19861;SDS011;10093;48.148;8.542;2023-11-21T03:00:28;0.57;;;0.08;;
19861;SDS011;10093;48.148;8.542;2023-11-21T03:02:55;1.20;;;0.10;;
19861;SDS011;10093;48.148;8.542;2023-11-21T03:05:21;0.85;;;0.10;;
19861;SDS011;10093;48.148;8.542;2023-11-21T03:07:47;2.33;;;0.10;;
19861;SDS011;10093;48.148;8.542;2023-11-21T03:10:12;1.55;;;0.10;;
19861;SDS011;10093;48.148;8.542;2023-11-21T03:12:38;1.33;;;0.10;;
19861;SDS011;10093;48.148;8.542;2023-11-21T03:15:05;0.30;;;0.17;;
19861;SDS011;10093;48.148;8.542;2023-11-21T03:17:31;0.20;;;0.20;;
19861;SDS011;10093;48.148;8.542;2023-11-21T03:19:58;0.32;;;0.10;;
19861;SDS011;10093;48.148;8.542;2023-11-21T03:22:24;0.10;;;0.10;;
19861;SDS011;10093;48.148;8.542;2023-11-21T03:24:50;0.90;;;0.10;;
19861;SDS011;10093;48.148;8.542;2023-11-21T03:27:16;0.55;;;0.55;;
19861;SDS011;10093;48.148;8.542;2023-11-21T03:29:41;2.13;;;0.30;;
19861;SDS011;10093;48.148;8.542;2023-11-21T03:32:07;1.10;;;0.10;;
19861;SDS011;10093;48.148;8.542;2023-11-21T03:34:32;0.55;;;0.40;;
19861;SDS011;10093;48.148;8.542;2023-11-21T03:36:58;2.10;;;0.50;;
19861;SDS011;10093;48.148;8.542;2023-11-21T03:39:24;0.30;;;0.30;;
19861;SDS011;10093;48.148;8.542;2023-11-21T03:41:50;1.75;;;0.40;;
19861;SDS011;10093;48.148;8.542;2023-11-21T03:44:17;0.90;;;0.20;;
19861;SDS011;10093;48.148;8.542;2023-11-21T03:46:43;0.70;;;0.20;;
19861;SDS011;10093;48.148;8.542;2023-11-21T03:49:09;0.43;;;0.17;;
19861;SDS011;10093;48.148;8.542;2023-11-21T03:51:36;0.90;;;0.10;;
19861;SDS011;10093;48.148;8.542;2023-11-21T03:54:01;1.55;;;0.20;;
19861;SDS011;10093;48.148;8.542;2023-11-21T03:56:28;0.38;;;0.10;;
19861;SDS011;10093;48.148;8.542;2023-11-21T03:58:53;1.20;;;0.20;;
19861;SDS011;10093;48.148;8.542;2023-11-21T04:01:22;0.13;;;0.10;;
19861;SDS011;10093;48.148;8.542;2023-11-21T04:03:48;1.48;;;0.10;;
19861;SDS011;10093;48.148;8.542;2023-11-21T04:06:14;2.00;;;0.10;;
19861;SDS011;10093;48.148;8.542;2023-11-21T04:08:42;0.65;;;0.20;;
19861;SDS011;10093;48.148;8.542;2023-11-21T04:11:09;2.88;;;1.05;;
19861;SDS011;10093;48.148;8.542;2023-11-21T04:13:36;1.83;;;0.30;;
19861;SDS011;10093;48.148;8.542;2023-11-21T04:16:05;0.20;;;0.20;;
19861;SDS011;10093;48.148;8.542;2023-11-21T04:18:32;0.98;;;0.10;;
19861;SDS011;10093;48.148;8.542;2023-11-21T04:20:58;0.65;;;0.10;;
19861;SDS011;10093;48.148;8.542;2023-11-21T04:23:24;1.38;;;0.10;;
19861;SDS011;10093;48.148;8.542;2023-11-21T04:25:50;0.77;;;0.20;;
19861;SDS011;10093;48.148;8.542;2023-11-21T04:28:15;1.83;;;0.30;;
19861;SDS011;10093;48.148;8.542;2023-11-21T04:30:41;1.17;;;0.10;;
19861;SDS011;10093;48.148;8.542;2023-11-21T04:33:07;1.15;;;0.20;;
19861;SDS011;10093;48.148;8.542;2023-11-21T04:35:32;1.02;;;0.20;;
19861;SDS011;10093;48.148;8.542;2023-11-21T04:37:58;1.15;;;0.30;;
19861;SDS011;10093;48.148;8.542;2023-11-21T04:40:24;1.83;;;0.38;;
19861;SDS011;10093;48.148;8.542;2023-11-21T04:42:52;1.42;;;0.40;;
19861;SDS011;10093;48.148;8.542;2023-11-21T04:45:17;0.35;;;0.20;;
19861;SDS011;10093;48.148;8.542;2023-11-21T04:47:43;1.48;;;0.10;;
19861;SDS011;10093;48.148;8.542;2023-11-21T04:50:08;0.80;;;0.20;;
19861;SDS011;10093;48.148;8.542;2023-11-21T04:52:34;0.73;;;0.35;;
19861;SDS011;10093;48.148;8.542;2023-11-21T04:55:00;0.40;;;0.40;;
19861;SDS011;10093;48.148;8.542;2023-11-21T04:57:27;0.77;;;0.40;;
19861;SDS011;10093;48.148;8.542;2023-11-21T04:59:53;3.40;;;0.60;;
19861;SDS011;10093;48.148;8.542;2023-11-21T05:02:19;1.85;;;0.30;;
19861;SDS011;10093;48.148;8.542;2023-11-21T05:04:46;1.20;;;0.35;;
19861;SDS011;10093;48.148;8.542;2023-11-21T05:07:12;2.78;;;0.60;;
19861;SDS011;10093;48.148;8.542;2023-11-21T05:09:41;2.88;;;0.40;;
19861;SDS011;10093;48.148;8.542;2023-11-21T05:12:11;1.95;;;0.30;;
19861;SDS011;10093;48.148;8.542;2023-11-21T05:17:50;0.32;;;0.20;;
19861;SDS011;10093;48.148;8.542;2023-11-21T05:20:17;0.70;;;0.20;;
19861;SDS011;10093;48.148;8.542;2023-11-21T05:22:46;1.45;;;0.50;;
19861;SDS011;10093;48.148;8.542;2023-11-21T05:25:15;1.10;;;0.52;;
19861;SDS011;10093;48.148;8.542;2023-11-21T05:27:43;1.83;;;0.82;;
19861;SDS011;10093;48.148;8.542;2023-11-21T05:30:09;3.08;;;0.75;;
19861;SDS011;10093;48.148;8.542;2023-11-21T05:32:37;4.35;;;0.40;;
19861;SDS011;10093;48.148;8.542;2023-11-21T05:35:03;0.73;;;0.30;;
19861;SDS011;10093;48.148;8.542;2023-11-21T05:37:34;1.23;;;0.40;;
19861;SDS011;10093;48.148;8.542;2023-11-21T05:40:00;1.52;;;0.30;;
19861;SDS011;10093;48.148;8.542;2023-11-21T05:42:31;0.75;;;0.40;;
19861;SDS011;10093;48.148;8.542;2023-11-21T05:44:57;1.63;;;0.52;;
19861;SDS011;10093;48.148;8.542;2023-11-21T05:47:37;2.20;;;0.50;;
19861;SDS011;10093;48.148;8.542;2023-11-21T05:50:08;1.00;;;0.40;;
19861;SDS011;10093;48.148;8.542;2023-11-21T05:52:37;1.15;;;0.43;;
19861;SDS011;10093;48.148;8.542;2023-11-21T05:55:04;0.73;;;0.52;;
19861;SDS011;10093;48.148;8.542;2023-11-21T05:57:32;2.05;;;0.55;;
19861;SDS011;10093;48.148;8.542;2023-11-21T06:00:08;4.70;;;0.30;;
19861;SDS011;10093;48.148;8.542;2023-11-21T06:02:39;0.40;;;0.30;;
19861;SDS011;10093;48.148;8.542;2023-11-21T06:05:08;0.20;;;0.20;;
19861;SDS011;10093;48.148;8.542;2023-11-21T06:07:35;1.27;;;0.40;;
19861;SDS011;10093;48.148;8.542;2023-11-21T06:10:04;0.77;;;0.20;;
19861;SDS011;10093;48.148;8.542;2023-11-21T06:12:36;1.10;;;0.43;;
19861;SDS011;10093;48.148;8.542;2023-11-21T06:15:03;1.70;;;0.30;;
19861;SDS011;10093;48.148;8.542;2023-11-21T06:17:30;0.28;;;0.28;;
19861;SDS011;10093;48.148;8.542;2023-11-21T06:19:56;3.40;;;0.30;;
19861;SDS011;10093;48.148;8.542;2023-11-21T06:22:22;0.40;;;0.30;;
19861;SDS011;10093;48.148;8.542;2023-11-21T06:24:47;1.83;;;0.40;;
19861;SDS011;10093;48.148;8.542;2023-11-21T06:27:13;2.67;;;0.43;;
19861;SDS011;10093;48.148;8.542;2023-11-21T06:29:39;0.90;;;0.40;;
19861;SDS011;10093;48.148;8.542;2023-11-21T06:32:04;0.50;;;0.32;;
19861;SDS011;10093;48.148;8.542;2023-11-21T06:34:30;0.50;;;0.30;;
19861;SDS011;10093;48.148;8.542;2023-11-21T06:36:56;1.00;;;0.40;;
19861;SDS011;10093;48.148;8.542;2023-11-21T06:39:22;4.80;;;1.35;;
19861;SDS011;10093;48.148;8.542;2023-11-21T06:41:51;4.35;;;1.33;;
19861;SDS011;10093;48.148;8.542;2023-11-21T06:44:16;4.00;;;3.30;;
19861;SDS011;10093;48.148;8.542;2023-11-21T06:46:42;2.88;;;2.15;;
19861;SDS011;10093;48.148;8.542;2023-11-21T06:49:08;2.45;;;2.25;;
19861;SDS011;10093;48.148;8.542;2023-11-21T06:51:34;4.63;;;3.40;;
19861;SDS011;10093;48.148;8.542;2023-11-21T06:53:59;3.90;;;3.20;;
19861;SDS011;10093;48.148;8.542;2023-11-21T06:56:25;8.45;;;3.45;;
19861;SDS011;10093;48.148;8.542;2023-11-21T06:58:50;9.07;;;3.95;;
19861;SDS011;10093;48.148;8.542;2023-11-21T07:01:19;6.88;;;3.95;;
19861;SDS011;10093;48.148;8.542;2023-11-21T07:03:47;8.52;;;4.90;;
19861;SDS011;10093;48.148;8.542;2023-11-21T07:06:13;16.00;;;12.75;;
19861;SDS011;10093;48.148;8.542;2023-11-21T07:08:38;17.17;;;11.43;;
19861;SDS011;10093;48.148;8.542;2023-11-21T07:11:04;14.95;;;10.02;;
19861;SDS011;10093;48.148;8.542;2023-11-21T07:13:30;6.80;;;5.07;;
19861;SDS011;10093;48.148;8.542;2023-11-21T07:15:57;8.35;;;6.03;;
19861;SDS011;10093;48.148;8.542;2023-11-21T07:18:24;7.70;;;5.57;;
19861;SDS011;10093;48.148;8.542;2023-11-21T07:20:49;6.10;;;3.28;;
19861;SDS011;10093;48.148;8.542;2023-11-21T07:23:15;4.75;;;3.42;;
19861;SDS011;10093;48.148;8.542;2023-11-21T07:25:41;4.82;;;2.42;;
19861;SDS011;10093;48.148;8.542;2023-11-21T07:28:08;4.00;;;3.17;;
19861;SDS011;10093;48.148;8.542;2023-11-21T07:30:34;4.28;;;3.00;;
19861;SDS011;10093;48.148;8.542;2023-11-21T07:33:00;12.13;;;6.30;;
19861;SDS011;10093;48.148;8.542;2023-11-21T07:35:25;22.45;;;8.55;;
19861;SDS011;10093;48.148;8.542;2023-11-21T07:37:51;8.10;;;2.65;;
19861;SDS011;10093;48.148;8.542;2023-11-21T07:40:17;31.92;;;3.03;;
19861;SDS011;10093;48.148;8.542;2023-11-21T07:42:43;3.40;;;2.28;;
19861;SDS011;10093;48.148;8.542;2023-11-21T07:45:08;6.55;;;3.00;;
19861;SDS011;10093;48.148;8.542;2023-11-21T07:47:34;6.70;;;4.05;;
19861;SDS011;10093;48.148;8.542;2023-11-21T07:50:00;2.85;;;2.08;;
19861;SDS011;10093;48.148;8.542;2023-11-21T07:52:29;3.33;;;2.00;;
19861;SDS011;10093;48.148;8.542;2023-11-21T07:54:55;2.88;;;1.80;;
19861;SDS011;10093;48.148;8.542;2023-11-21T07:57:21;3.83;;;2.75;;
19861;SDS011;10093;48.148;8.542;2023-11-21T07:59:46;1.83;;;0.98;;
19861;SDS011;10093;48.148;8.542;2023-11-21T08:02:12;4.68;;;0.60;;
19861;SDS011;10093;48.148;8.542;2023-11-21T08:04:38;2.35;;;0.70;;
19861;SDS011;10093;48.148;8.542;2023-11-21T08:07:03;1.90;;;0.57;;
19861;SDS011;10093;48.148;8.542;2023-11-21T08:09:29;2.28;;;0.65;;
19861;SDS011;10093;48.148;8.542;2023-11-21T08:11:55;3.97;;;0.80;;
19861;SDS011;10093;48.148;8.542;2023-11-21T08:14:21;1.35;;;0.68;;
19861;SDS011;10093;48.148;8.542;2023-11-21T08:16:47;2.10;;;0.82;;
19861;SDS011;10093;48.148;8.542;2023-11-21T08:19:13;2.20;;;1.20;;
19861;SDS011;10093;48.148;8.542;2023-11-21T08:21:38;2.03;;;1.40;;
19861;SDS011;10093;48.148;8.542;2023-11-21T08:24:06;2.75;;;1.10;;
19861;SDS011;10093;48.148;8.542;2023-11-21T08:26:35;2.22;;;0.98;;
19861;SDS011;10093;48.148;8.542;2023-11-21T08:29:01;2.13;;;1.52;;
19861;SDS011;10093;48.148;8.542;2023-11-21T08:31:27;2.45;;;1.10;;
19861;SDS011;10093;48.148;8.542;2023-11-21T08:33:53;0.85;;;0.85;;
19861;SDS011;10093;48.148;8.542;2023-11-21T08:36:20;4.20;;;0.90;;
19861;SDS011;10093;48.148;8.542;2023-11-21T08:38:49;1.60;;;0.98;;
19861;SDS011;10093;48.148;8.542;2023-11-21T08:41:15;1.83;;;0.95;;
19861;SDS011;10093;48.148;8.542;2023-11-21T08:43:41;0.88;;;0.75;;
19861;SDS011;10093;48.148;8.542;2023-11-21T08:46:07;1.00;;;0.70;;
19861;SDS011;10093;48.148;8.542;2023-11-21T08:48:36;2.00;;;0.60;;
19861;SDS011;10093;48.148;8.542;2023-11-21T08:51:02;2.92;;;0.80;;
19861;SDS011;10093;48.148;8.542;2023-11-21T08:53:29;1.58;;;1.00;;
19861;SDS011;10093;48.148;8.542;2023-11-21T08:55:56;1.25;;;1.05;;
19861;SDS011;10093;48.148;8.542;2023-11-21T08:58:22;2.35;;;1.10;;
19861;SDS011;10093;48.148;8.542;2023-11-21T09:00:47;1.50;;;0.82;;
19861;SDS011;10093;48.148;8.542;2023-11-21T09:03:13;3.25;;;1.17;;
19861;SDS011;10093;48.148;8.542;2023-11-21T09:05:39;1.20;;;0.73;;
19861;SDS011;10093;48.148;8.542;2023-11-21T09:08:05;1.10;;;1.00;;
19861;SDS011;10093;48.148;8.542;2023-11-21T09:10:31;3.42;;;0.68;;
19861;SDS011;10093;48.148;8.542;2023-11-21T09:13:01;0.88;;;0.63;;
19861;SDS011;10093;48.148;8.542;2023-11-21T09:15:27;2.85;;;0.70;;
19861;SDS011;10093;48.148;8.542;2023-11-21T09:17:53;2.25;;;1.15;;
19861;SDS011;10093;48.148;8.542;2023-11-21T09:20:19;1.67;;;1.10;;
19861;SDS011;10093;48.148;8.542;2023-11-21T09:22:47;1.65;;;0.98;;
19861;SDS011;10093;48.148;8.542;2023-11-21T09:25:13;1.10;;;1.00;;
19861;SDS011;10093;48.148;8.542;2023-11-21T09:27:40;1.20;;;1.08;;
19861;SDS011;10093;48.148;8.542;2023-11-21T09:30:06;1.85;;;1.23;;
19861;SDS011;10093;48.148;8.542;2023-11-21T09:32:34;1.98;;;1.23;;
19861;SDS011;10093;48.148;8.542;2023-11-21T09:35:02;1.52;;;1.42;;
19861;SDS011;10093;48.148;8.542;2023-11-21T09:37:28;6.88;;;1.52;;
19861;SDS011;10093;48.148;8.542;2023-11-21T09:39:55;1.77;;;1.10;;
19861;SDS011;10093;48.148;8.542;2023-11-21T09:42:25;5.07;;;2.92;;
19861;SDS011;10093;48.148;8.542;2023-11-21T09:48:00;4.93;;;1.85;;
19861;SDS011;10093;48.148;8.542;2023-11-21T09:50:26;3.70;;;1.85;;
19861;SDS011;10093;48.148;8.542;2023-11-21T09:53:05;2.75;;;1.88;;
19861;SDS011;10093;48.148;8.542;2023-11-21T09:55:43;3.88;;;2.03;;
19861;SDS011;10093;48.148;8.542;2023-11-21T09:58:10;2.90;;;2.30;;
19861;SDS011;10093;48.148;8.542;2023-11-21T10:00:40;2.90;;;1.88;;
19861;SDS011;10093;48.148;8.542;2023-11-21T10:03:10;3.92;;;2.13;;
19861;SDS011;10093;48.148;8.542;2023-11-21T10:05:36;3.65;;;2.10;;
19861;SDS011;10093;48.148;8.542;2023-11-21T10:08:04;2.95;;;1.42;;
19861;SDS011;10093;48.148;8.542;2023-11-21T10:10:34;2.83;;;1.73;;
19861;SDS011;10093;48.148;8.542;2023-11-21T10:13:02;3.78;;;1.70;;
19861;SDS011;10093;48.148;8.542;2023-11-21T10:15:31;2.53;;;1.33;;
19861;SDS011;10093;48.148;8.542;2023-11-21T10:17:59;4.07;;;1.40;;
19861;SDS011;10093;48.148;8.542;2023-11-21T10:20:32;5.22;;;1.50;;
19861;SDS011;10093;48.148;8.542;2023-11-21T10:23:03;2.60;;;0.90;;
19861;SDS011;10093;48.148;8.542;2023-11-21T10:25:32;2.90;;;1.40;;
19861;SDS011;10093;48.148;8.542;2023-11-21T10:27:58;2.30;;;1.10;;
19861;SDS011;10093;48.148;8.542;2023-11-21T10:30:34;1.25;;;1.10;;
19861;SDS011;10093;48.148;8.542;2023-11-21T10:33:02;2.83;;;0.90;;
19861;SDS011;10093;48.148;8.542;2023-11-21T10:35:47;0.98;;;0.90;;
19861;SDS011;10093;48.148;8.542;2023-11-21T10:38:19;1.70;;;0.85;;
19861;SDS011;10093;48.148;8.542;2023-11-21T10:40:49;1.17;;;0.80;;
19861;SDS011;10093;48.148;8.542;2023-11-21T10:43:16;1.17;;;0.80;;
19861;SDS011;10093;48.148;8.542;2023-11-21T10:45:42;1.15;;;0.70;;
19861;SDS011;10093;48.148;8.542;2023-11-21T10:48:09;3.25;;;0.80;;
19861;SDS011;10093;48.148;8.542;2023-11-21T10:50:36;2.15;;;1.00;;
19861;SDS011;10093;48.148;8.542;2023-11-21T10:53:02;1.45;;;0.88;;
19861;SDS011;10093;48.148;8.542;2023-11-21T10:55:29;0.75;;;0.63;;
19861;SDS011;10093;48.148;8.542;2023-11-21T10:57:58;2.63;;;0.63;;
19861;SDS011;10093;48.148;8.542;2023-11-21T11:00:25;1.25;;;0.80;;
19861;SDS011;10093;48.148;8.542;2023-11-21T11:02:52;1.67;;;0.52;;
19861;SDS011;10093;48.148;8.542;2023-11-21T11:05:23;7.80;;;5.07;;
19861;SDS011;10093;48.148;8.542;2023-11-21T11:07:52;5.07;;;2.67;;
19861;SDS011;10093;48.148;8.542;2023-11-21T11:10:25;1.05;;;0.45;;
19861;SDS011;10093;48.148;8.542;2023-11-21T11:12:52;0.77;;;0.40;;
19861;SDS011;10093;48.148;8.542;2023-11-21T11:15:22;1.00;;;0.50;;
19861;SDS011;10093;48.148;8.542;2023-11-21T11:17:48;3.40;;;2.00;;
19861;SDS011;10093;48.148;8.542;2023-11-21T11:20:15;2.90;;;1.33;;
19861;SDS011;10093;48.148;8.542;2023-11-21T11:28:51;0.93;;;0.30;;
19861;SDS011;10093;48.148;8.542;2023-11-21T11:31:39;1.08;;;0.93;;
19861;SDS011;10093;48.148;8.542;2023-11-21T11:37:02;0.82;;;0.43;;
19861;SDS011;10093;48.148;8.542;2023-11-21T11:39:37;0.95;;;0.10;;
19861;SDS011;10093;48.148;8.542;2023-11-21T11:42:04;0.22;;;0.13;;
19861;SDS011;10093;48.148;8.542;2023-11-21T11:52:50;0.20;;;0.17;;
19861;SDS011;10093;48.148;8.542;2023-11-21T11:55:18;0.10;;;0.10;;
19861;SDS011;10093;48.148;8.542;2023-11-21T11:57:46;0.52;;;0.13;;
19861;SDS011;10093;48.148;8.542;2023-11-21T12:02:49;0.65;;;0.10;;
19861;SDS011;10093;48.148;8.542;2023-11-21T12:05:17;0.32;;;0.20;;
19861;SDS011;10093;48.148;8.542;2023-11-21T12:10:20;0.10;;;0.10;;
19861;SDS011;10093;48.148;8.542;2023-11-21T12:12:49;0.20;;;0.10;;
19861;SDS011;10093;48.148;8.542;2023-11-21T12:15:17;0.20;;;0.10;;
19861;SDS011;10093;48.148;8.542;2023-11-21T12:17:44;1.65;;;0.20;;
19861;SDS011;10093;48.148;8.542;2023-11-21T12:20:14;0.35;;;0.10;;
19861;SDS011;10093;48.148;8.542;2023-11-21T12:25:21;0.10;;;0.10;;
19861;SDS011;10093;48.148;8.542;2023-11-21T12:27:49;0.10;;;0.00;;
19861;SDS011;10093;48.148;8.542;2023-11-21T12:30:20;0.10;;;0.10;;
19861;SDS011;10093;48.148;8.542;2023-11-21T12:32:50;0.10;;;0.10;;
19861;SDS011;10093;48.148;8.542;2023-11-21T12:35:17;0.10;;;0.10;;
19861;SDS011;10093;48.148;8.542;2023-11-21T12:37:47;0.00;;;0.00;;
19861;SDS011;10093;48.148;8.542;2023-11-21T12:40:14;0.05;;;0.05;;
19861;SDS011;10093;48.148;8.542;2023-11-21T12:43:01;0.08;;;0.00;;
19861;SDS011;10093;48.148;8.542;2023-11-21T12:45:29;0.10;;;0.00;;
19861;SDS011;10093;48.148;8.542;2023-11-21T12:48:02;1.90;;;0.10;;
19861;SDS011;10093;48.148;8.542;2023-11-21T12:50:33;0.45;;;0.10;;
19861;SDS011;10093;48.148;8.542;2023-11-21T12:53:02;0.00;;;0.00;;
19861;SDS011;10093;48.148;8.542;2023-11-21T12:55:34;0.50;;;0.40;;
19861;SDS011;10093;48.148;8.542;2023-11-21T12:58:03;0.10;;;0.10;;
19861;SDS011;10093;48.148;8.542;2023-11-21T13:00:35;2.38;;;0.30;;
19861;SDS011;10093;48.148;8.542;2023-11-21T13:03:02;2.08;;;0.70;;
19861;SDS011;10093;48.148;8.542;2023-11-21T13:05:36;0.10;;;0.10;;
19861;SDS011;10093;48.148;8.542;2023-11-21T13:08:09;0.00;;;0.00;;
19861;SDS011;10093;48.148;8.542;2023-11-21T13:10:38;0.20;;;0.10;;
19861;SDS011;10093;48.148;8.542;2023-11-21T13:13:07;4.03;;;1.83;;
19861;SDS011;10093;48.148;8.542;2023-11-21T13:15:34;0.30;;;0.30;;
19861;SDS011;10093;48.148;8.542;2023-11-21T13:18:12;0.38;;;0.38;;
19861;SDS011;10093;48.148;8.542;2023-11-21T13:20:38;3.33;;;2.58;;
19861;SDS011;10093;48.148;8.542;2023-11-21T13:23:07;0.30;;;0.00;;
19861;SDS011;10093;48.148;8.542;2023-11-21T13:25:34;0.10;;;0.10;;
19861;SDS011;10093;48.148;8.542;2023-11-21T13:28:00;0.20;;;0.08;;
19861;SDS011;10093;48.148;8.542;2023-11-21T13:30:25;1.35;;;1.08;;
19861;SDS011;10093;48.148;8.542;2023-11-21T13:32:53;0.35;;;0.20;;
19861;SDS011;10093;48.148;8.542;2023-11-21T13:35:22;0.70;;;0.00;;
19861;SDS011;10093;48.148;8.542;2023-11-21T13:37:57;0.30;;;0.20;;
19861;SDS011;10093;48.148;8.542;2023-11-21T13:40:38;0.00;;;0.00;;
19861;SDS011;10093;48.148;8.542;2023-11-21T13:43:09;0.10;;;0.10;;
19861;SDS011;10093;48.148;8.542;2023-11-21T13:45:36;0.10;;;0.00;;
19861;SDS011;10093;48.148;8.542;2023-11-21T13:48:04;2.53;;;0.10;;
19861;SDS011;10093;48.148;8.542;2023-11-21T13:50:35;0.20;;;0.10;;
19861;SDS011;10093;48.148;8.542;2023-11-21T13:53:04;0.20;;;0.20;;
19861;SDS011;10093;48.148;8.542;2023-11-21T13:55:43;0.10;;;0.10;;
19861;SDS011;10093;48.148;8.542;2023-11-21T13:58:10;1.10;;;0.05;;
19861;SDS011;10093;48.148;8.542;2023-11-21T14:00:41;0.03;;;0.03;;
19861;SDS011;10093;48.148;8.542;2023-11-21T14:03:10;0.03;;;0.00;;
19861;SDS011;10093;48.148;8.542;2023-11-21T14:05:47;0.00;;;0.00;;
19861;SDS011;10093;48.148;8.542;2023-11-21T14:08:19;0.15;;;0.10;;
19861;SDS011;10093;48.148;8.542;2023-11-21T14:10:46;0.22;;;0.10;;
19861;SDS011;10093;48.148;8.542;2023-11-21T14:13:22;0.13;;;0.10;;
19861;SDS011;10093;48.148;8.542;2023-11-21T14:15:49;0.00;;;0.00;;
19861;SDS011;10093;48.148;8.542;2023-11-21T14:18:22;0.25;;;0.03;;
19861;SDS011;10093;48.148;8.542;2023-11-21T14:20:55;0.00;;;0.00;;
19861;SDS011;10093;48.148;8.542;2023-11-21T14:23:21;0.00;;;0.00;;
19861;SDS011;10093;48.148;8.542;2023-11-21T14:25:48;1.48;;;0.00;;
19861;SDS011;10093;48.148;8.542;2023-11-21T14:28:15;1.55;;;0.10;;
19861;SDS011;10093;48.148;8.542;2023-11-21T14:30:41;0.43;;;0.10;;
19861;SDS011;10093;48.148;8.542;2023-11-21T14:33:07;0.22;;;0.10;;
19861;SDS011;10093;48.148;8.542;2023-11-21T14:35:36;0.63;;;0.00;;
19861;SDS011;10093;48.148;8.542;2023-11-21T14:38:02;0.10;;;0.10;;
19861;SDS011;10093;48.148;8.542;2023-11-21T14:40:30;1.45;;;0.10;;
19861;SDS011;10093;48.148;8.542;2023-11-21T14:42:59;0.10;;;0.10;;
19861;SDS011;10093;48.148;8.542;2023-11-21T14:45:25;0.13;;;0.10;;
19861;SDS011;10093;48.148;8.542;2023-11-21T14:47:52;1.85;;;0.10;;
19861;SDS011;10093;48.148;8.542;2023-11-21T14:50:29;0.10;;;0.10;;
19861;SDS011;10093;48.148;8.542;2023-11-21T14:53:04;5.72;;;0.20;;
19861;SDS011;10093;48.148;8.542;2023-11-21T14:55:31;2.00;;;0.30;;
19861;SDS011;10093;48.148;8.542;2023-11-21T14:58:18;1.98;;;1.85;;
19861;SDS011;10093;48.148;8.542;2023-11-21T15:00:56;37.50;;;16.52;;
19861;SDS011;10093;48.148;8.542;2023-11-21T15:03:26;21.52;;;9.93;;
19861;SDS011;10093;48.148;8.542;2023-11-21T15:05:56;7.03;;;4.28;;
19861;SDS011;10093;48.148;8.542;2023-11-21T15:08:24;1.23;;;0.73;;
19861;SDS011;10093;48.148;8.542;2023-11-21T15:10:57;0.90;;;0.40;;
19861;SDS011;10093;48.148;8.542;2023-11-21T15:13:23;1.80;;;0.40;;
19861;SDS011;10093;48.148;8.542;2023-11-21T15:15:51;0.90;;;0.20;;
19861;SDS011;10093;48.148;8.542;2023-11-21T15:18:19;0.25;;;0.22;;
19861;SDS011;10093;48.148;8.542;2023-11-21T15:20:45;0.20;;;0.10;;
19861;SDS011;10093;48.148;8.542;2023-11-21T15:23:11;0.47;;;0.15;;